createdAt,value
2022-12-20T00:01:55.761Z,3.63
2022-12-20T00:06:59.627Z,2.83
2022-12-20T00:12:01.815Z,3.03
2022-12-20T00:17:03.934Z,2.85
2022-12-20T00:22:07.460Z,3.30
2022-12-20T00:27:09.588Z,2.88
2022-12-20T00:32:11.727Z,2.90
2022-12-20T00:37:15.329Z,3.05
2022-12-20T00:42:17.576Z,2.88
2022-12-20T00:47:19.818Z,3.20
2022-12-20T00:52:23.367Z,2.60
2022-12-20T00:57:25.445Z,2.67
2022-12-20T01:02:27.779Z,2.97
2022-12-20T01:07:33.021Z,2.85
2022-12-20T01:12:35.226Z,3.17
2022-12-20T01:17:38.052Z,2.85
2022-12-20T01:22:47.263Z,2.75
2022-12-20T01:27:50.014Z,2.85
2022-12-20T01:32:52.106Z,2.63
2022-12-20T01:37:55.598Z,2.60
2022-12-20T01:42:57.688Z,2.70
2022-12-20T01:48:00.529Z,2.53
2022-12-20T01:53:05.828Z,2.38
2022-12-20T01:58:10.748Z,2.72
2022-12-20T02:03:15.519Z,2.35
2022-12-20T02:08:20.460Z,2.30
2022-12-20T02:13:37.537Z,2.40
2022-12-20T02:18:45.973Z,2.47
2022-12-20T02:24:10.940Z,2.70
2022-12-20T02:29:30.357Z,2.35
2022-12-20T02:34:36.673Z,2.33
2022-12-20T02:39:41.979Z,2.42
2022-12-20T02:44:49.128Z,2.50
2022-12-20T02:49:55.732Z,2.45
2022-12-20T02:55:00.008Z,1.93
2022-12-20T03:00:06.576Z,2.55
2022-12-20T03:05:10.292Z,1.83
2022-12-20T03:10:12.523Z,2.20
2022-12-20T03:15:14.809Z,2.50
2022-12-20T03:20:18.687Z,2.42
2022-12-20T03:25:20.993Z,2.10
2022-12-20T03:30:23.170Z,2.42
2022-12-20T03:35:26.799Z,2.35
2022-12-20T03:40:29.089Z,2.40
2022-12-20T03:45:31.225Z,2.28
2022-12-20T03:50:34.843Z,2.03
2022-12-20T03:55:36.941Z,2.28
2022-12-20T04:00:39.044Z,2.17
2022-12-20T04:05:42.571Z,2.40
2022-12-20T04:10:44.637Z,2.72
2022-12-20T04:15:46.736Z,2.00
2022-12-20T04:20:54.173Z,2.55
2022-12-20T04:25:56.326Z,2.50
2022-12-20T04:30:59.145Z,2.42
2022-12-20T04:36:02.733Z,2.42
2022-12-20T04:41:04.899Z,2.40
2022-12-20T04:46:06.983Z,2.90
2022-12-20T04:51:10.577Z,2.67
2022-12-20T04:56:12.721Z,2.65
2022-12-20T05:01:15.322Z,2.25
2022-12-20T05:06:19.034Z,2.42
2022-12-20T05:11:21.173Z,2.53
2022-12-20T05:16:23.362Z,2.30
2022-12-20T05:21:27.012Z,2.35
2022-12-20T05:26:31.670Z,2.70
2022-12-20T05:31:33.888Z,2.83
2022-12-20T05:36:37.442Z,2.38
2022-12-20T05:41:39.625Z,2.47
2022-12-20T05:46:41.848Z,2.10
2022-12-20T05:51:45.429Z,2.45
2022-12-20T05:56:47.569Z,2.30
2022-12-20T06:01:51.058Z,2.85
2022-12-20T06:06:54.646Z,2.50
2022-12-20T06:11:56.693Z,2.50
2022-12-20T06:16:58.831Z,2.90
2022-12-20T06:22:02.543Z,2.53
2022-12-20T06:27:05.209Z,2.63
2022-12-20T06:32:07.416Z,2.60
2022-12-20T06:37:11.085Z,2.60
2022-12-20T06:42:13.279Z,2.25
2022-12-20T06:47:15.600Z,2.42
2022-12-20T06:52:19.212Z,2.45
2022-12-20T06:57:21.432Z,2.60
2022-12-20T07:02:25.348Z,2.72
2022-12-20T07:07:31.362Z,3.08
2022-12-20T07:12:33.475Z,3.97
2022-12-20T07:17:35.591Z,3.20
2022-12-20T07:22:39.126Z,2.85
2022-12-20T07:27:41.376Z,2.25
2022-12-20T07:32:43.568Z,2.70
2022-12-20T07:37:47.111Z,2.80
2022-12-20T07:42:49.300Z,2.75
2022-12-20T07:47:51.516Z,2.70
2022-12-20T07:52:55.705Z,3.20
2022-12-20T07:58:02.318Z,3.40
2022-12-20T08:03:11.471Z,3.20
2022-12-20T08:08:16.237Z,3.30
2022-12-20T08:13:18.787Z,4.25
2022-12-20T08:18:23.703Z,3.17
2022-12-20T08:23:28.443Z,3.30
2022-12-20T08:28:30.712Z,3.42
2022-12-20T08:33:33.636Z,3.80
2022-12-20T08:38:37.355Z,3.60
2022-12-20T08:43:40.361Z,4.90
2022-12-20T08:48:42.569Z,3.90
2022-12-20T08:53:46.076Z,3.85
2022-12-20T08:58:48.307Z,3.83
2022-12-20T09:03:50.502Z,3.97
2022-12-20T09:08:54.185Z,3.67
2022-12-20T09:13:57.956Z,4.10
2022-12-20T09:19:05.674Z,3.60
2022-12-20T09:24:10.406Z,3.17
2022-12-20T09:29:12.506Z,3.40
2022-12-20T09:34:14.633Z,3.05
2022-12-20T09:39:18.179Z,3.22
2022-12-20T09:44:25.136Z,3.17
2022-12-20T09:49:31.418Z,3.30
2022-12-20T09:54:42.258Z,3.20
2022-12-20T09:59:49.457Z,2.47
2022-12-20T10:04:53.570Z,3.00
2022-12-20T10:10:24.712Z,4.20
2022-12-20T10:15:33.365Z,2.72
2022-12-20T10:20:46.353Z,2.53
2022-12-20T10:25:53.256Z,2.50
2022-12-20T10:30:58.911Z,2.90
2022-12-20T10:36:21.584Z,2.78
2022-12-20T10:41:26.819Z,2.67
2022-12-20T10:46:38.094Z,2.85
2022-12-20T10:51:52.954Z,2.65
2022-12-20T10:56:59.482Z,2.90
2022-12-20T11:02:03.221Z,2.77
2022-12-20T11:07:23.833Z,2.50
2022-12-20T11:12:27.502Z,2.45
2022-12-20T11:17:37.931Z,2.38
2022-12-20T11:22:52.045Z,2.50
2022-12-20T11:28:09.844Z,2.67
2022-12-20T11:33:31.558Z,2.60
2022-12-20T11:38:43.506Z,2.20
2022-12-20T11:49:50.966Z,2.28
2022-12-20T11:55:03.752Z,2.70
2022-12-20T12:00:13.054Z,2.35
2022-12-20T12:05:21.277Z,2.20
2022-12-20T12:10:27.103Z,2.45
2022-12-20T12:15:35.934Z,2.25
2022-12-20T12:20:47.000Z,3.05
2022-12-20T12:25:49.381Z,2.30
2022-12-20T12:31:03.969Z,2.78
2022-12-20T12:36:34.544Z,2.28
2022-12-20T12:42:16.920Z,2.20
2022-12-20T12:47:25.052Z,2.38
2022-12-20T12:52:43.382Z,2.55
2022-12-20T12:57:56.322Z,2.22
2022-12-20T13:03:05.552Z,1.92
2022-12-20T13:08:16.935Z,1.75
2022-12-20T13:13:23.405Z,2.28
2022-12-20T13:18:29.927Z,2.40
2022-12-20T13:23:32.958Z,2.13
2022-12-20T13:28:45.937Z,2.17
2022-12-20T13:33:51.289Z,2.45
2022-12-20T13:38:56.875Z,2.40
2022-12-20T13:44:03.861Z,2.67
2022-12-20T13:49:12.887Z,2.60
2022-12-20T13:54:25.015Z,2.90
2022-12-20T13:59:32.397Z,2.65
2022-12-20T14:04:43.358Z,2.63
2022-12-20T14:09:47.478Z,2.45
2022-12-20T14:14:51.149Z,3.13
2022-12-20T14:20:06.716Z,3.30
2022-12-20T14:25:12.753Z,3.05
2022-12-20T14:30:28.832Z,3.10
2022-12-20T14:35:32.931Z,3.20
2022-12-20T14:40:41.330Z,3.15
2022-12-20T14:45:43.469Z,2.63
2022-12-20T14:50:53.754Z,2.92
2022-12-20T14:55:56.391Z,3.15
2022-12-20T15:01:01.390Z,3.70
2022-12-20T15:06:05.167Z,3.20
2022-12-20T15:11:17.401Z,3.35
2022-12-20T15:16:30.544Z,3.78
2022-12-20T15:26:38.032Z,3.38
2022-12-20T15:31:40.283Z,3.70
2022-12-20T15:36:43.901Z,3.80
2022-12-20T15:41:48.432Z,4.00
2022-12-20T15:46:52.008Z,3.72
2022-12-20T15:51:55.859Z,4.57
2022-12-20T15:56:59.838Z,4.30
2022-12-20T16:02:02.245Z,4.38
2022-12-20T16:07:12.350Z,4.75
2022-12-20T16:12:16.353Z,5.40
2022-12-20T16:17:18.493Z,5.63
2022-12-20T16:22:23.490Z,5.60
2022-12-20T16:27:25.709Z,5.72
2022-12-20T16:32:27.920Z,5.05
2022-12-20T16:37:35.750Z,6.03
2022-12-20T16:42:41.309Z,6.57
2022-12-20T16:47:43.447Z,6.28
2022-12-20T16:52:47.177Z,5.82
2022-12-20T16:57:49.914Z,7.22
2022-12-20T17:02:53.068Z,8.02
2022-12-20T17:07:56.992Z,7.65
2022-12-20T17:12:59.251Z,7.90
2022-12-20T17:18:01.408Z,7.25
2022-12-20T17:23:09.758Z,7.93
2022-12-20T17:28:12.156Z,7.85
2022-12-20T17:33:15.173Z,7.60
2022-12-20T17:38:18.694Z,7.25
2022-12-20T17:43:20.836Z,6.93
2022-12-20T17:48:27.439Z,8.23
2022-12-20T17:53:35.769Z,7.28
2022-12-20T17:58:37.850Z,8.68
2022-12-20T18:04:02.995Z,7.00
2022-12-20T18:09:05.524Z,8.30
2022-12-20T18:14:07.918Z,7.93
2022-12-20T18:19:16.937Z,8.02
2022-12-20T18:24:20.742Z,8.48
2022-12-20T18:29:22.837Z,9.02
2022-12-20T18:34:25.118Z,9.38
2022-12-20T18:39:28.681Z,8.55
2022-12-20T18:44:30.937Z,8.48
2022-12-20T18:49:36.967Z,9.20
2022-12-20T18:54:41.169Z,10.17
2022-12-20T18:59:43.322Z,8.82
2022-12-20T19:04:45.439Z,9.10
2022-12-20T19:09:49.361Z,9.43
2022-12-20T19:14:51.518Z,9.10
2022-12-20T19:19:53.777Z,9.73
2022-12-20T19:24:57.408Z,8.93
2022-12-20T19:29:59.611Z,9.55
2022-12-20T19:35:16.390Z,8.80
2022-12-20T19:40:25.273Z,9.30
2022-12-20T19:45:28.038Z,10.32
2022-12-20T19:50:30.135Z,10.35
2022-12-20T19:56:08.151Z,9.95
2022-12-20T20:01:14.962Z,9.98
2022-12-20T20:06:17.092Z,8.02
2022-12-20T20:11:22.607Z,9.13
2022-12-20T20:16:26.573Z,7.28
2022-12-20T20:21:28.978Z,5.90
2022-12-20T20:26:32.777Z,5.22
2022-12-20T20:31:35.008Z,4.32
2022-12-20T20:36:37.358Z,4.00
2022-12-20T20:41:41.030Z,4.05
2022-12-20T20:46:43.470Z,4.50
2022-12-20T20:51:45.831Z,4.60
2022-12-20T20:56:49.393Z,4.13
2022-12-20T21:01:51.611Z,5.05
2022-12-20T21:06:53.836Z,4.38
2022-12-20T21:11:57.536Z,4.90
2022-12-20T21:16:59.849Z,5.35
2022-12-20T21:22:01.932Z,5.38
2022-12-20T21:27:05.610Z,5.60
2022-12-20T21:32:08.074Z,6.47
2022-12-20T21:37:10.197Z,6.22
2022-12-20T21:42:13.746Z,6.82
2022-12-20T21:47:15.869Z,6.95
2022-12-20T21:52:18.058Z,7.45
2022-12-20T21:57:21.620Z,8.57
2022-12-20T22:02:24.117Z,8.00
2022-12-20T22:07:26.295Z,8.20
2022-12-20T22:12:29.908Z,9.50
2022-12-20T22:17:32.080Z,9.50
2022-12-20T22:22:34.242Z,8.80
2022-12-20T22:27:37.855Z,8.63
2022-12-20T22:32:39.984Z,10.43
2022-12-20T22:37:42.092Z,10.43
2022-12-20T22:42:45.908Z,9.40
2022-12-20T22:47:48.093Z,9.60
2022-12-20T22:52:50.184Z,9.95
2022-12-20T22:57:54.131Z,9.65
2022-12-20T23:02:56.414Z,10.38
2022-12-20T23:07:58.786Z,10.57
2022-12-20T23:13:02.303Z,10.88
2022-12-20T23:18:04.546Z,10.63
2022-12-20T23:23:08.689Z,10.05
2022-12-20T23:28:12.192Z,10.63
2022-12-20T23:33:14.319Z,10.13
2022-12-20T23:38:16.439Z,10.20
2022-12-20T23:43:20.001Z,10.05
2022-12-20T23:48:22.111Z,10.05
2022-12-20T23:53:24.210Z,10.52
2022-12-20T23:58:28.090Z,8.95
